Time;durP1;ratioP1;P1;durP2;ratioP2;P2;SDS_P1;SDS_P2;PMS_P1;PMS_P2;Temp;Humidity;BMP_temperature;BMP_pressure;BME280_temperature;BME280_humidity;BME280_pressure;Samples;Min_cycle;Max_cycle;Signal;HPM_P1;HPM_P2
2021/11/24 00:02:01;;;;;;;;;;;;;;;21.31;42.39;102660.81;7286022;19;152882;-52
2021/11/24 00:04:28;;;;;;;;;;;;;;;21.29;42.42;102665.88;7292724;19;153672;-52
2021/11/24 00:06:54;;;;;;;;;;;;;;;21.27;42.51;102662.50;7287532;19;153387;-52
2021/11/24 00:09:21;;;;;;;;;;;;;;;21.22;42.11;102657.69;7283944;19;153753;-52
2021/11/24 00:11:51;;;;;;;;;;;;;;;21.20;42.34;102659.94;7286522;19;152029;-51
2021/11/24 00:14:23;;;;;;;;;;;;;;;21.18;42.43;102653.72;7284014;19;153230;-52
2021/11/24 00:17:00;;;;;;;;;;;;;;;21.16;42.60;102653.16;7284499;19;154996;-52
2021/11/24 00:19:26;;;;;;;;;;;;;;;21.14;42.40;102655.38;7285262;19;151760;-52
2021/11/24 00:21:58;;;;;;;;;;;;;;;21.13;42.55;102647.22;7283418;19;153625;-52
2021/11/24 00:24:24;;;;;;;;;;;;;;;21.10;42.29;102644.94;7284592;19;154057;-52
2021/11/24 00:27:00;;;;;;;;;;;;;;;21.09;42.63;102648.84;7291318;19;151790;-52
2021/11/24 00:29:26;;;;;;;;;;;;;;;21.07;42.82;102642.66;7284684;19;153980;-52
2021/11/24 00:31:53;;;;;;;;;;;;;;;21.03;42.34;102645.16;7285628;19;153683;-52
2021/11/24 00:34:22;;;;;;;;;;;;;;;21.00;42.56;102642.88;7284149;19;152662;-52
2021/11/24 00:36:49;;;;;;;;;;;;;;;20.98;42.88;102636.72;7285057;19;153099;-52
2021/11/24 00:39:15;;;;;;;;;;;;;;;20.95;42.79;102633.56;7286639;19;152274;-51
2021/11/24 00:41:42;;;;;;;;;;;;;;;20.92;42.61;102634.97;7284768;19;153220;-52
2021/11/24 00:44:09;;;;;;;;;;;;;;;20.90;43.00;102630.72;7284161;19;154198;-51
2021/11/24 00:46:35;;;;;;;;;;;;;;;20.84;43.12;102625.09;7292117;19;151797;-52
2021/11/24 00:49:02;;;;;;;;;;;;;;;20.87;42.94;102623.69;7278935;19;152650;-52
2021/11/24 00:51:29;;;;;;;;;;;;;;;20.91;42.97;102619.22;7285520;19;152142;-52
2021/11/24 00:53:55;;;;;;;;;;;;;;;20.96;43.17;102629.66;7284375;19;152340;-52
2021/11/24 00:56:22;;;;;;;;;;;;;;;20.92;43.00;102615.31;7283746;19;152348;-52
2021/11/24 00:58:48;;;;;;;;;;;;;;;20.94;43.32;102615.03;7285005;19;152168;-52
2021/11/24 01:01:15;;;;;;;;;;;;;;;20.90;44.59;102611.06;7285898;19;153060;-52
2021/11/24 01:03:43;;;;;;;;;;;;;;;20.89;44.56;102604.63;7279518;19;154568;-51
2021/11/24 01:06:11;;;;;;;;;;;;;;;20.86;44.27;102603.19;7283955;19;151651;-52
2021/11/24 01:08:37;;;;;;;;;;;;;;;20.88;44.85;102613.31;7292141;19;154502;-52
2021/11/24 01:11:04;;;;;;;;;;;;;;;20.86;44.38;102603.19;7285781;19;152445;-52
2021/11/24 01:16:52;;;;;;;;;;;;;;;20.79;44.92;102598.91;7271328;19;152687;-51
2021/11/24 01:19:19;;;;;;;;;;;;;;;20.78;45.11;102594.41;7285496;19;152337;-52
2021/11/24 01:21:50;;;;;;;;;;;;;;;20.71;45.29;102605.91;7285198;19;153011;-51
2021/11/24 01:24:17;;;;;;;;;;;;;;;20.66;45.30;102599.38;7283939;19;153647;-51
2021/11/24 01:26:44;;;;;;;;;;;;;;;20.64;45.49;102594.03;7285086;19;151810;-51
2021/11/24 01:29:11;;;;;;;;;;;;;;;20.59;45.38;102588.38;7285875;19;152631;-51
2021/11/24 01:31:38;;;;;;;;;;;;;;;20.56;45.22;102596.50;7293107;19;153981;-52
2021/11/24 01:34:05;;;;;;;;;;;;;;;20.53;45.28;102586.66;7285610;19;153028;-51
2021/11/24 01:36:32;;;;;;;;;;;;;;;20.49;45.75;102579.84;7284981;19;152282;-51
2021/11/24 01:38:58;;;;;;;;;;;;;;;20.50;45.91;102577.91;7285614;19;152249;-51
2021/11/24 01:41:25;;;;;;;;;;;;;;;20.47;45.93;102579.28;7286079;19;154261;-51
2021/11/24 01:43:52;;;;;;;;;;;;;;;20.42;45.98;102585.72;7284472;19;154176;-51
2021/11/24 01:46:23;;;;;;;;;;;;;;;20.41;46.07;102580.34;7285510;19;152476;-51
2021/11/24 01:48:50;;;;;;;;;;;;;;;20.39;45.80;102574.19;7285539;19;152745;-51
2021/11/24 01:51:18;;;;;;;;;;;;;;;20.40;45.75;102575.84;7283399;19;151880;-51
2021/11/24 01:53:45;;;;;;;;;;;;;;;20.37;46.35;102567.97;7291666;19;151791;-52
2021/11/24 01:56:12;;;;;;;;;;;;;;;20.36;46.27;102566.28;7284689;19;153498;-51
2021/11/24 01:58:39;;;;;;;;;;;;;;;20.32;46.12;102563.16;7283704;19;152217;-52
2021/11/24 02:01:05;;;;;;;;;;;;;;;20.37;45.98;102559.56;7285276;19;153573;-52
2021/11/24 02:03:33;;;;;;;;;;;;;;;20.31;46.08;102555.00;7280678;19;152115;-51
2021/11/24 02:05:59;;;;;;;;;;;;;;;20.30;46.30;102558.94;7283327;19;152007;-51
2021/11/24 02:08:26;;;;;;;;;;;;;;;20.26;46.33;102543.72;7284993;19;152614;-51
2021/11/24 02:10:56;;;;;;;;;;;;;;;20.30;46.17;102539.28;7283707;19;152557;-51
2021/11/24 02:13:27;;;;;;;;;;;;;;;20.26;46.14;102543.72;7283326;19;152308;-51
2021/11/24 02:15:54;;;;;;;;;;;;;;;20.23;46.53;102545.09;7288530;19;153439;-52
2021/11/24 02:18:20;;;;;;;;;;;;;;;20.22;46.53;102543.38;7282087;19;151565;-51
2021/11/24 02:20:48;;;;;;;;;;;;;;;20.18;46.51;102532.97;7284603;19;153483;-52
2021/11/24 02:23:15;;;;;;;;;;;;;;;20.18;46.39;102531.00;7283588;19;154217;-51
2021/11/24 02:25:43;;;;;;;;;;;;;;;20.15;46.35;102522.28;7282837;19;151940;-52
2021/11/24 02:28:10;;;;;;;;;;;;;;;20.14;46.34;102520.59;7283173;19;152544;-52
2021/11/24 02:30:36;;;;;;;;;;;;;;;20.10;46.55;102525.88;7281071;19;153776;-51
2021/11/24 02:33:03;;;;;;;;;;;;;;;20.08;46.95;102521.69;7284277;19;151815;-51
2021/11/24 02:35:30;;;;;;;;;;;;;;;20.09;46.71;102515.78;7281221;19;153315;-51
2021/11/24 02:37:57;;;;;;;;;;;;;;;20.05;46.78;102505.34;7290606;19;153960;-52
2021/11/24 02:40:31;;;;;;;;;;;;;;;20.03;46.64;102500.03;7283132;19;151688;-51
2021/11/24 02:42:57;;;;;;;;;;;;;;;19.98;46.77;102498.03;7282833;19;152440;-51
2021/11/24 02:45:24;;;;;;;;;;;;;;;19.94;46.74;102494.03;7284124;19;152263;-51
2021/11/24 02:47:51;;;;;;;;;;;;;;;19.94;47.13;102499.63;7282756;19;155729;-52
2021/11/24 02:50:18;;;;;;;;;;;;;;;19.93;46.90;102483.09;7281526;19;154532;-52
2021/11/24 02:52:49;;;;;;;;;;;;;;;19.90;47.44;102487.28;7283170;19;151819;-52
2021/11/24 02:55:16;;;;;;;;;;;;;;;19.89;47.20;102473.53;7282319;19;152655;-52
2021/11/24 02:57:45;;;;;;;;;;;;;;;19.89;47.00;102477.19;7289874;19;153803;-52
2021/11/24 03:00:16;;;;;;;;;;;;;;;19.83;47.31;102477.41;7283024;19;153533;-51
2021/11/24 03:02:44;;;;;;;;;;;;;;;19.82;47.17;102479.34;7280201;19;152198;-52
2021/11/24 03:05:11;;;;;;;;;;;;;;;19.80;47.56;102469.53;7290187;19;151950;-52
2021/11/24 03:07:39;;;;;;;;;;;;;;;19.78;47.33;102468.94;7285463;19;151885;-52
2021/11/24 03:10:06;;;;;;;;;;;;;;;19.74;47.38;102465.81;7289124;19;154683;-51
2021/11/24 03:12:33;;;;;;;;;;;;;;;19.74;47.68;102467.78;7287160;19;151704;-51
2021/11/24 03:14:59;;;;;;;;;;;;;;;19.71;47.50;102463.56;7288974;19;152714;-51
2021/11/24 03:17:26;;;;;;;;;;;;;;;19.69;47.34;102465.75;7288689;19;153915;-51
2021/11/24 03:19:53;;;;;;;;;;;;;;;19.69;47.34;102457.34;7296566;19;151815;-51
2021/11/24 03:24:55;;;;;;;;;;;;;;;19.64;47.94;102462.91;7289338;19;152001;-51
2021/11/24 03:27:25;;;;;;;;;;;;;;;19.64;48.06;102450.84;7288808;19;152058;-51
2021/11/24 03:29:52;;;;;;;;;;;;;;;19.61;48.01;102449.44;7286723;19;154750;-51
2021/11/24 03:32:19;;;;;;;;;;;;;;;19.61;48.02;102454.19;7289575;19;152097;-52
2021/11/24 03:34:46;;;;;;;;;;;;;;;19.58;47.84;102454.72;7287973;19;153157;-51
2021/11/24 03:37:12;;;;;;;;;;;;;;;19.57;48.19;102445.47;7288045;19;153246;-51
2021/11/24 03:39:39;;;;;;;;;;;;;;;19.57;48.12;102444.63;7289173;19;152186;-51
2021/11/24 03:42:06;;;;;;;;;;;;;;;19.55;48.45;102439.25;7294839;19;151995;-51
2021/11/24 03:44:33;;;;;;;;;;;;;;;19.53;48.24;102435.91;7289193;19;152319;-51
2021/11/24 03:47:00;;;;;;;;;;;;;;;19.51;48.40;102429.69;7289372;19;153577;-51
2021/11/24 03:49:27;;;;;;;;;;;;;;;19.51;48.70;102429.69;7286890;19;154553;-51
2021/11/24 03:51:53;;;;;;;;;;;;;;;19.48;48.48;102428.28;7289211;19;151471;-51
2021/11/24 03:54:20;;;;;;;;;;;;;;;19.47;48.37;102432.19;7288251;19;153183;-51
2021/11/24 03:56:47;;;;;;;;;;;;;;;19.46;48.98;102429.66;7287613;19;154078;-51
2021/11/24 03:59:13;;;;;;;;;;;;;;;19.46;48.74;102415.63;7288674;19;151905;-51
2021/11/24 04:01:40;;;;;;;;;;;;;;;19.44;48.68;102415.88;7287023;19;152727;-52
2021/11/24 04:04:07;;;;;;;;;;;;;;;19.43;49.07;102405.81;7293838;19;154060;-52
2021/11/24 04:06:34;;;;;;;;;;;;;;;19.42;48.99;102404.06;7288536;19;153710;-51
2021/11/24 04:09:01;;;;;;;;;;;;;;;19.41;48.84;102401.53;7287087;19;153360;-51
2021/11/24 04:11:27;;;;;;;;;;;;;;;19.37;48.84;102392.81;7288114;19;152100;-51
2021/11/24 04:13:55;;;;;;;;;;;;;;;19.36;49.27;102393.91;7288110;19;153305;-51
2021/11/24 04:16:21;;;;;;;;;;;;;;;19.36;48.90;102384.66;7283786;19;153362;-51
2021/11/24 04:18:48;;;;;;;;;;;;;;;19.34;48.98;102381.28;7288467;19;151839;-51
2021/11/24 04:21:16;;;;;;;;;;;;;;;19.33;49.34;102372.03;7285972;19;151688;-51
2021/11/24 04:23:43;;;;;;;;;;;;;;;19.32;49.26;102369.50;7286617;19;152139;-51
2021/11/24 04:26:11;;;;;;;;;;;;;;;19.32;49.03;102367.53;7295297;19;151728;-51
2021/11/24 04:28:37;;;;;;;;;;;;;;;19.28;48.98;102371.13;7287077;19;153357;-52
2021/11/24 04:31:07;;;;;;;;;;;;;;;19.28;49.29;102376.75;7288711;19;152527;-51
2021/11/24 04:33:33;;;;;;;;;;;;;;;19.25;49.14;102360.47;7287393;19;152393;-51
2021/11/24 04:36:00;;;;;;;;;;;;;;;19.25;49.32;102380.09;7284766;19;153841;-51
2021/11/24 04:38:27;;;;;;;;;;;;;;;19.24;49.43;102373.63;7287470;19;151877;-51
2021/11/24 04:40:55;;;;;;;;;;;;;;;19.21;49.57;102371.38;7288223;19;152720;-51
2021/11/24 04:43:26;;;;;;;;;;;;;;;19.21;49.64;102360.16;7286890;19;153243;-52
2021/11/24 04:45:53;;;;;;;;;;;;;;;19.19;49.40;102361.53;7284667;19;152211;-52
2021/11/24 04:48:20;;;;;;;;;;;;;;;19.18;49.55;102354.22;7292720;19;152821;-52
2021/11/24 04:50:47;;;;;;;;;;;;;;;19.16;49.35;102354.50;7286819;19;151609;-52
2021/11/24 04:53:16;;;;;;;;;;;;;;;19.14;49.78;102350.25;7285288;19;153484;-52
2021/11/24 04:55:42;;;;;;;;;;;;;;;19.12;49.65;102350.53;7283887;19;154273;-52
2021/11/24 04:58:10;;;;;;;;;;;;;;;19.12;49.90;102349.69;7287057;19;152111;-51
2021/11/24 05:00:37;;;;;;;;;;;;;;;19.13;49.83;102338.19;7287181;19;153447;-51
2021/11/24 05:03:04;;;;;;;;;;;;;;;19.11;49.68;102346.03;7282514;19;154281;-51
2021/11/24 05:05:32;;;;;;;;;;;;;;;19.09;50.00;102346.28;7286426;19;151622;-52
2021/11/24 05:07:59;;;;;;;;;;;;;;;19.06;50.05;102335.63;7292850;19;151589;-52
2021/11/24 05:10:26;;;;;;;;;;;;;;;19.05;50.22;102333.94;7286368;19;152065;-52
2021/11/24 05:12:53;;;;;;;;;;;;;;;19.09;49.90;102335.09;7286584;19;153359;-52
2021/11/24 05:15:23;;;;;;;;;;;;;;;19.15;50.07;102332.34;7283959;19;153638;-52
2021/11/24 05:18:00;;;;;;;;;;;;;;;19.19;49.80;102328.75;7286131;19;152440;-52
2021/11/24 05:20:29;;;;;;;;;;;;;;;19.24;50.00;102325.16;7286602;19;152933;-51
2021/11/24 05:22:59;;;;;;;;;;;;;;;19.29;50.09;102319.59;7284872;19;153450;-51
2021/11/24 05:25:26;;;;;;;;;;;;;;;19.34;50.05;102314.88;7286106;19;151980;-51
2021/11/24 05:27:53;;;;;;;;;;;;;;;19.39;50.42;102323.34;7286277;19;152904;-52
2021/11/24 05:30:20;;;;;;;;;;;;;;;19.44;50.75;102312.19;7291894;19;153805;-52
2021/11/24 05:32:48;;;;;;;;;;;;;;;19.52;51.17;102316.47;7286546;19;152545;-51
2021/11/24 05:35:14;;;;;;;;;;;;;;;19.57;51.00;102310.91;7284026;19;154217;-51
2021/11/24 05:37:41;;;;;;;;;;;;;;;19.64;51.16;102305.88;7285637;19;152256;-51
2021/11/24 05:40:08;;;;;;;;;;;;;;;19.70;51.14;102299.22;7285450;19;152165;-51
2021/11/24 05:42:35;;;;;;;;;;;;;;;19.77;50.89;102298.97;7284512;19;153866;-52
2021/11/24 05:45:14;;;;;;;;;;;;;;;19.84;50.70;102293.97;7285405;19;151975;-51
2021/11/24 05:48:02;;;;;;;;;;;;;;;19.90;50.73;102293.72;7286122;19;153603;-51
2021/11/24 05:50:40;;;;;;;;;;;;;;;20.00;50.54;102295.75;7284620;19;153909;-52
2021/11/24 05:53:06;;;;;;;;;;;;;;;20.06;50.60;102294.66;7292058;19;152031;-51
2021/11/24 05:55:33;;;;;;;;;;;;;;;20.14;50.47;102293.28;7283366;19;153269;-51
2021/11/24 05:58:00;;;;;;;;;;;;;;;20.19;50.27;102287.69;7285523;19;151893;-51
2021/11/24 06:00:26;;;;;;;;;;;;;;;20.26;49.85;102288.31;7282255;19;152613;-51
2021/11/24 06:02:53;;;;;;;;;;;;;;;20.32;49.54;102290.88;7282461;19;154160;-52
2021/11/24 06:05:20;;;;;;;;;;;;;;;20.40;49.39;102295.97;7284974;19;151749;-51
2021/11/24 06:07:47;;;;;;;;;;;;;;;20.46;50.14;102288.41;7282030;19;152646;-51
2021/11/24 06:10:13;;;;;;;;;;;;;;;20.51;49.21;102282.81;7284658;19;153764;-51
2021/11/24 06:12:40;;;;;;;;;;;;;;;20.57;49.54;102292.97;7285080;19;151419;-51
2021/11/24 06:15:07;;;;;;;;;;;;;;;20.64;49.09;102287.06;7290945;19;152492;-52
2021/11/24 06:17:34;;;;;;;;;;;;;;;20.70;49.13;102271.91;7281788;19;151802;-52
2021/11/24 06:20:00;;;;;;;;;;;;;;;20.74;48.94;102281.47;7283649;19;151986;-52
2021/11/24 06:22:27;;;;;;;;;;;;;;;20.78;48.86;102283.44;7283209;19;153985;-52
2021/11/24 06:24:54;;;;;;;;;;;;;;;20.83;48.46;102286.28;7285122;19;151722;-52
2021/11/24 06:27:20;;;;;;;;;;;;;;;20.88;48.61;102278.97;7283803;19;153616;-52
2021/11/24 06:29:47;;;;;;;;;;;;;;;20.92;48.65;102272.53;7283473;19;153717;-52
2021/11/24 06:32:14;;;;;;;;;;;;;;;20.98;48.10;102264.94;7281157;19;151995;-52
2021/11/24 06:34:41;;;;;;;;;;;;;;;21.03;48.16;102262.97;7284404;19;152670;-52
2021/11/24 06:37:07;;;;;;;;;;;;;;;21.07;48.42;102261.31;7287740;19;153388;-51
2021/11/24 06:39:34;;;;;;;;;;;;;;;21.11;47.87;102253.16;7289432;19;152496;-51
2021/11/24 06:42:01;;;;;;;;;;;;;;;21.15;48.06;102257.97;7289898;19;153850;-52
2021/11/24 06:44:27;;;;;;;;;;;;;;;21.19;47.72;102252.63;7287021;19;152036;-52
2021/11/24 06:46:54;;;;;;;;;;;;;;;21.23;47.89;102251.78;7291015;19;152594;-52
2021/11/24 06:49:21;;;;;;;;;;;;;;;21.28;47.92;102245.31;7288507;19;154358;-52
2021/11/24 06:51:48;;;;;;;;;;;;;;;21.32;47.82;102239.94;7289090;19;152837;-52
2021/11/24 06:54:17;;;;;;;;;;;;;;;21.36;47.83;102241.06;7290157;19;153167;-52
2021/11/24 06:56:46;;;;;;;;;;;;;;;21.41;47.91;102241.91;7287472;19;152215;-51
2021/11/24 06:59:13;;;;;;;;;;;;;;;21.44;48.23;102234.91;7298313;19;151805;-51
2021/11/24 07:01:40;;;;;;;;;;;;;;;21.47;47.72;102237.13;7288493;19;154248;-52
2021/11/24 07:04:09;;;;;;;;;;;;;;;21.51;47.37;102239.09;7289754;19;151936;-52
2021/11/24 07:06:36;;;;;;;;;;;;;;;21.55;47.63;102242.19;7287612;19;153331;-51
2021/11/24 07:09:03;;;;;;;;;;;;;;;21.59;47.17;102234.84;7288937;19;153951;-51
2021/11/24 07:11:31;;;;;;;;;;;;;;;21.61;47.59;102230.66;7288933;19;152206;-51
2021/11/24 07:13:58;;;;;;;;;;;;;;;21.65;47.33;102237.38;7289994;19;153287;-51
2021/11/24 07:16:25;;;;;;;;;;;;;;;21.71;47.06;102226.97;7286926;19;154084;-52
2021/11/24 07:18:52;;;;;;;;;;;;;;;21.75;47.03;102216.81;7297390;19;152186;-52
2021/11/24 07:21:18;;;;;;;;;;;;;;;21.79;46.96;102222.72;7288560;19;153597;-52
2021/11/24 07:23:45;;;;;;;;;;;;;;;21.83;46.06;102223.81;7290114;19;152232;-52
2021/11/24 07:26:12;;;;;;;;;;;;;;;21.84;45.93;102232.00;7288634;19;153365;-52
2021/11/24 07:28:38;;;;;;;;;;;;;;;21.87;45.21;102227.75;7289109;19;153747;-52
2021/11/24 07:31:05;;;;;;;;;;;;;;;21.89;45.56;102228.31;7288729;19;152092;-52
2021/11/24 07:33:32;;;;;;;;;;;;;;;21.92;45.32;102222.09;7289840;19;153313;-52
2021/11/24 07:35:59;;;;;;;;;;;;;;;21.94;44.64;102223.53;7286495;19;154214;-53
2021/11/24 07:38:26;;;;;;;;;;;;;;;21.95;43.92;102236.47;7288809;19;152147;-53
2021/11/24 07:40:52;;;;;;;;;;;;;;;21.17;37.77;102223.94;7294195;19;153474;-52
2021/11/24 07:43:19;;;;;;;;;;;;;;;20.95;38.70;102212.09;7288573;19;151818;-53
2021/11/24 07:45:46;;;;;;;;;;;;;;;21.29;39.26;102218.88;7288370;19;153281;-53
2021/11/24 07:48:13;;;;;;;;;;;;;;;21.40;40.45;102219.69;7288167;19;152697;-52
2021/11/24 07:50:40;;;;;;;;;;;;;;;21.43;39.95;102221.97;7285943;19;151654;-52
2021/11/24 07:53:07;;;;;;;;;;;;;;;21.49;40.53;102218.00;7288274;19;152609;-51
2021/11/24 07:55:33;;;;;;;;;;;;;;;21.52;41.13;102212.66;7286083;19;154211;-52
2021/11/24 07:58:00;;;;;;;;;;;;;;;21.55;41.18;102211.25;7286265;19;151947;-52
2021/11/24 08:00:32;;;;;;;;;;;;;;;21.56;41.31;102207.31;7287887;19;155035;-52
2021/11/24 08:02:59;;;;;;;;;;;;;;;21.59;41.48;102203.91;7293323;19;153413;-52
2021/11/24 08:05:25;;;;;;;;;;;;;;;21.62;41.73;102200.56;7284060;19;154806;-52
2021/11/24 08:08:02;;;;;;;;;;;;;;;21.60;41.88;102195.19;7284487;19;153893;-52
2021/11/24 08:10:29;;;;;;;;;;;;;;;21.61;41.77;102199.72;7287420;19;152041;-52
2021/11/24 08:12:56;;;;;;;;;;;;;;;21.61;41.98;102196.03;7286734;19;151997;-52
2021/11/24 08:15:23;;;;;;;;;;;;;;;21.60;41.54;102199.97;7286653;19;153541;-52
2021/11/24 08:17:50;;;;;;;;;;;;;;;21.59;41.67;102198.28;7285447;19;151892;-52
2021/11/24 08:20:17;;;;;;;;;;;;;;;21.60;41.63;102194.34;7288310;19;152681;-52
2021/11/24 08:22:44;;;;;;;;;;;;;;;21.56;41.58;102194.09;7285081;19;152191;-52
2021/11/24 08:25:11;;;;;;;;;;;;;;;21.62;41.09;102186.50;7292966;19;151885;-52
2021/11/24 08:27:37;;;;;;;;;;;;;;;21.61;41.28;102184.78;7285558;19;154349;-52
2021/11/24 08:30:05;;;;;;;;;;;;;;;21.61;41.90;102184.78;7288002;19;151956;-54
2021/11/24 08:32:32;;;;;;;;;;;;;;;21.66;41.71;102177.19;7285300;19;152324;-52
2021/11/24 08:35:00;;;;;;;;;;;;;;;21.64;41.74;102178.59;7285896;19;152394;-53
2021/11/24 08:37:27;;;;;;;;;;;;;;;21.60;41.83;102175.50;7285392;19;151899;-52
2021/11/24 08:39:53;;;;;;;;;;;;;;;21.57;41.64;102169.63;7287507;19;153382;-52
2021/11/24 08:42:25;;;;;;;;;;;;;;;21.53;41.95;102172.13;7286041;19;153233;-52
2021/11/24 08:44:56;;;;;;;;;;;;;;;21.50;41.52;102175.53;7286510;19;151542;-52
2021/11/24 08:47:22;;;;;;;;;;;;;;;21.48;41.67;102183.44;7292410;19;152139;-52
2021/11/24 08:49:49;;;;;;;;;;;;;;;21.43;41.40;102166.56;7287400;19;152091;-52
2021/11/24 08:52:16;;;;;;;;;;;;;;;21.41;41.37;102166.00;7286599;19;153157;-52
2021/11/24 08:54:44;;;;;;;;;;;;;;;21.51;42.11;102170.75;7285574;19;154274;-52
2021/11/24 08:57:11;;;;;;;;;;;;;;;21.47;41.87;102164.88;7283284;19;152604;-52
2021/11/24 08:59:37;;;;;;;;;;;;;;;21.41;41.84;102166.00;7286618;19;151910;-52
2021/11/24 09:02:04;;;;;;;;;;;;;;;21.39;42.34;102159.00;7283596;19;153301;-53
2021/11/24 09:04:32;;;;;;;;;;;;;;;21.40;42.53;102155.88;7286526;19;152484;-52
2021/11/24 09:06:59;;;;;;;;;;;;;;;21.42;42.46;102162.06;7284071;19;153445;-52
2021/11/24 09:09:26;;;;;;;;;;;;;;;21.44;42.90;102156.16;7292771;19;151803;-53
2021/11/24 09:11:53;;;;;;;;;;;;;;;21.46;43.22;102148.28;7286500;19;152543;-53
2021/11/24 09:14:20;;;;;;;;;;;;;;;21.50;43.43;102147.41;7285180;19;154233;-50
2021/11/24 09:17:04;;;;;;;;;;;;;;;21.55;43.58;102146.56;7284688;19;151847;-50
2021/11/24 09:19:32;;;;;;;;;;;;;;;21.58;43.77;102141.19;7286368;19;153470;-50
2021/11/24 09:21:59;;;;;;;;;;;;;;;21.61;43.21;102140.66;7283986;19;154040;-50
2021/11/24 09:24:26;;;;;;;;;;;;;;;21.65;43.44;102133.31;7283868;19;151963;-51
2021/11/24 09:26:57;;;;;;;;;;;;;;;21.69;43.68;102133.56;7286640;19;152762;-50
2021/11/24 09:29:25;;;;;;;;;;;;;;;21.72;43.42;102127.34;7293007;19;153320;-50
2021/11/24 09:31:52;;;;;;;;;;;;;;;21.77;43.70;102127.34;7286314;19;152815;-51
2021/11/24 09:34:19;;;;;;;;;;;;;;;21.81;43.56;102121.97;7285215;19;153603;-50
2021/11/24 09:36:46;;;;;;;;;;;;;;;21.84;43.57;102125.06;7284583;19;151874;-51
2021/11/24 09:39:14;;;;;;;;;;;;;;;21.89;43.30;102121.41;7286386;19;153529;-50
2021/11/24 09:41:41;;;;;;;;;;;;;;;21.91;43.47;102113.47;7283471;19;153801;-50
2021/11/24 09:44:08;;;;;;;;;;;;;;;21.94;43.15;102112.97;7285380;19;152142;-50
2021/11/24 09:46:35;;;;;;;;;;;;;;;21.95;43.23;102109.00;7285446;19;152789;-51
2021/11/24 09:49:03;;;;;;;;;;;;;;;21.97;42.88;102106.75;7284144;19;153473;-51
2021/11/24 09:51:32;;;;;;;;;;;;;;;21.99;43.22;102110.09;7293324;19;151795;-50
2021/11/24 09:54:03;;;;;;;;;;;;;;;22.03;43.32;102106.41;7283200;19;152738;-51
2021/11/24 09:56:31;;;;;;;;;;;;;;;21.87;41.75;102095.50;7283978;19;152085;-51
2021/11/24 09:59:14;;;;;;;;;;;;;;;21.86;41.42;102099.44;7281467;19;153380;-50
2021/11/24 10:01:41;;;;;;;;;;;;;;;21.86;41.47;102103.09;7283375;19;153216;-51
2021/11/24 10:04:09;;;;;;;;;;;;;;;21.86;40.95;102099.44;7285286;19;152326;-50
2021/11/24 10:06:39;;;;;;;;;;;;;;;21.85;41.47;102090.16;7282380;19;154168;-51
2021/11/24 10:09:07;;;;;;;;;;;;;;;21.84;41.18;102090.47;7278498;19;153294;-50
2021/11/24 10:11:35;;;;;;;;;;;;;;;21.82;41.25;102096.38;7276335;19;154191;-51
2021/11/24 10:14:02;;;;;;;;;;;;;;;21.80;41.07;102092.19;7279983;19;154215;-51
2021/11/24 10:16:39;;;;;;;;;;;;;;;21.77;41.06;102087.94;7282636;19;151839;-50
2021/11/24 10:19:09;;;;;;;;;;;;;;;21.74;40.62;102080.94;7274531;19;153407;-50
2021/11/24 10:21:54;;;;;;;;;;;;;;;21.71;40.94;102084.31;7278804;19;151966;-51
2021/11/24 10:24:35;;;;;;;;;;;;;;;21.67;40.47;102077.59;7281446;19;152554;-52
2021/11/24 10:27:03;;;;;;;;;;;;;;;21.64;40.88;102077.34;7282275;19;154072;-51
2021/11/24 10:29:34;;;;;;;;;;;;;;;21.61;40.68;102081.56;7282151;19;153590;-50
2021/11/24 10:32:02;;;;;;;;;;;;;;;21.56;40.46;102075.97;7282756;19;151735;-51
2021/11/24 10:34:31;;;;;;;;;;;;;;;21.53;40.77;102065.28;7283008;19;152996;-50
2021/11/24 10:37:07;;;;;;;;;;;;;;;21.50;40.48;102056.59;7289226;19;154112;-51
2021/11/24 10:39:42;;;;;;;;;;;;;;;21.47;40.58;102058.00;7282928;19;152638;-50
2021/11/24 10:42:28;;;;;;;;;;;;;;;21.44;40.56;102055.75;7279974;19;153454;-50
2021/11/24 10:45:21;;;;;;;;;;;;;;;21.42;40.78;102057.19;7278535;19;152611;-51
2021/11/24 10:47:50;;;;;;;;;;;;;;;21.37;40.84;102051.56;7282643;19;152752;-51
2021/11/24 10:50:18;;;;;;;;;;;;;;;21.36;40.66;102050.75;7281277;19;153401;-52
2021/11/24 10:52:55;;;;;;;;;;;;;;;21.31;40.59;102039.50;7281772;19;151926;-52
2021/11/24 10:55:22;;;;;;;;;;;;;;;21.28;40.59;102034.47;7281776;19;152359;-51
2021/11/24 10:57:59;;;;;;;;;;;;;;;21.24;40.63;102036.19;7278882;19;153262;-52
2021/11/24 11:00:34;;;;;;;;;;;;;;;21.20;40.48;102035.91;7286998;19;152309;-51
2021/11/24 11:03:01;;;;;;;;;;;;;;;21.17;40.66;102028.03;7278337;19;153645;-52
2021/11/24 11:05:28;;;;;;;;;;;;;;;21.15;40.81;102023.84;7281135;19;151974;-51
2021/11/24 11:07:57;;;;;;;;;;;;;;;21.14;41.00;102016.53;7279536;19;153396;-51
2021/11/24 11:10:29;;;;;;;;;;;;;;;21.12;40.80;102013.16;7275752;19;153916;-52
2021/11/24 11:13:02;;;;;;;;;;;;;;;21.10;40.65;102006.97;7275996;19;151977;-51
2021/11/24 11:15:28;;;;;;;;;;;;;;;21.08;41.11;102009.19;7277585;19;152674;-51
2021/11/24 11:18:14;;;;;;;;;;;;;;;21.07;41.24;101996.31;7278822;19;154389;-51
2021/11/24 11:20:52;;;;;;;;;;;;;;;21.06;40.98;101995.47;7289077;19;152120;-51
2021/11/24 11:23:27;;;;;;;;;;;;;;;21.06;41.48;101986.19;7279597;19;153264;-51
2021/11/24 11:26:04;;;;;;;;;;;;;;;21.10;41.24;101978.84;7287585;19;151998;-51
2021/11/24 11:28:35;;;;;;;;;;;;;;;21.12;41.08;101971.00;7287214;19;153145;-51
2021/11/24 11:31:03;;;;;;;;;;;;;;;21.16;41.62;101958.94;7286848;19;153329;-51
2021/11/24 11:33:34;;;;;;;;;;;;;;;21.18;41.18;101964.25;7288315;19;152327;-51
2021/11/24 11:36:07;;;;;;;;;;;;;;;21.19;41.02;101949.91;7287789;19;152165;-51
2021/11/24 11:38:36;;;;;;;;;;;;;;;21.20;40.95;101937.53;7282498;19;153564;-51
2021/11/24 11:41:05;;;;;;;;;;;;;;;21.22;41.00;101937.22;7287008;19;152252;-52
2021/11/24 11:43:52;;;;;;;;;;;;;;;21.24;41.37;101940.59;7293424;19;154302;-51
2021/11/24 11:46:43;;;;;;;;;;;;;;;21.24;41.28;101927.41;7286578;19;152511;-51
2021/11/24 11:49:15;;;;;;;;;;;;;;;21.25;41.08;101925.44;7287254;19;152868;-51
2021/11/24 11:51:44;;;;;;;;;;;;;;;21.24;40.95;101913.34;7286167;19;152578;-51
2021/11/24 11:54:12;;;;;;;;;;;;;;;21.26;41.00;101913.88;7287079;19;151829;-52
2021/11/24 11:56:44;;;;;;;;;;;;;;;21.25;41.17;101905.75;7286806;19;152450;-52
2021/11/24 11:59:15;;;;;;;;;;;;;;;21.24;41.03;101898.44;7283948;19;152839;-51
2021/11/24 12:01:43;;;;;;;;;;;;;;;21.24;41.01;101890.00;7285923;19;151832;-51
2021/11/24 12:04:19;;;;;;;;;;;;;;;21.23;40.71;101893.94;7286225;19;152821;-51
2021/11/24 12:06:47;;;;;;;;;;;;;;;21.23;40.84;101888.31;7293659;19;154038;-51
2021/11/24 12:09:16;;;;;;;;;;;;;;;21.19;40.86;101876.00;7286713;19;152989;-51
2021/11/24 12:12:11;;;;;;;;;;;;;;;21.18;41.02;101868.69;7287292;19;154301;-51
2021/11/24 12:14:41;;;;;;;;;;;;;;;21.17;40.99;101867.00;7277331;19;155292;-51
2021/11/24 12:17:29;;;;;;;;;;;;;;;21.16;40.52;101866.19;7285425;19;153387;-51
2021/11/24 12:19:56;;;;;;;;;;;;;;;21.15;40.61;101858.88;7286216;19;153290;-51
2021/11/24 12:22:41;;;;;;;;;;;;;;;21.12;40.61;101853.78;7287001;19;152072;-51
2021/11/24 12:25:08;;;;;;;;;;;;;;;21.10;40.53;101853.25;7287234;19;153262;-51
2021/11/24 12:28:01;;;;;;;;;;;;;;;21.08;40.59;101857.47;7285987;19;154390;-51
2021/11/24 12:33:07;;;;;;;;;;;;;;;21.05;41.06;101841.19;7283269;19;153444;-51
2021/11/24 12:35:36;;;;;;;;;;;;;;;21.05;41.14;101838.38;7284985;19;152391;-51
2021/11/24 12:38:41;;;;;;;;;;;;;;;21.05;41.08;101825.19;7285617;19;152855;-51
2021/11/24 12:41:10;;;;;;;;;;;;;;;21.07;41.13;101819.28;7284826;19;153319;-52
2021/11/24 12:43:40;;;;;;;;;;;;;;;21.10;40.98;101813.06;7285446;19;151907;-51
2021/11/24 12:46:10;;;;;;;;;;;;;;;21.13;41.09;101810.53;7284014;19;152612;-51